LFBI/PIS METAR and TAF weather

Enter ICAO airport designator
Station Type Date Time Source
LFBI METAR 2022/05/23 14:30 UTC NOAA

LFBI 231430Z AUTO 23016KT 9999 BKN031 BKN039 BKN046 20/13 Q1007 TEMPO 27015G25KT 4000 SHRA BKN030TCU


Station Type Date Time Source
LFBI Decoded METAR 2022/05/23 14:30 UTC NOAA

Poitiers, France (LFBI) 46-35N 000-19E 120M
May 23, 2022 - 10:30 AM EDT / 2022.05.23 1430 UTC
Wind: from the SW (230 degrees) at 18 MPH (16 KT):0
Visibility: greater than 7 mile(s):0
Sky conditions: mostly cloudy
Weather: Towering cumulus clouds observed
Temperature: 68 F (20 C)
Dew Point: 55 F (13 C)
Relative Humidity: 64%
Pressure (altimeter): 29.74 in. Hg (1007 hPa)
ob: LFBI 231430Z AUTO 23016KT 9999 BKN031 BKN039 BKN046 20/13 Q1007 TEMPO 27015G25KT 4000 SHRA BKN030TCU
cycle: 14

Station Type Date Time Source
LFBI TAF 2022/05/23 12:58 UTC NOAA

TAF LFBI 231100Z 2312/2412 26015KT 9999 BKN025
TEMPO 2314/2322 27015G25KT 4000 SHRA BKN030TCU
BECMG 2322/2324 28005KT PROB30
TEMPO 2403/2410 -SHRA BKN060TCU

Example: see airport list